createdAt,value
2019-05-15T00:00:51.090Z,7.78
2019-05-15T00:05:55.338Z,11.30
2019-05-15T00:10:59.057Z,10.82
2019-05-15T00:16:01.346Z,9.08
2019-05-15T00:21:04.775Z,10.32
2019-05-15T00:26:06.101Z,11.78
2019-05-15T00:31:09.061Z,10.93
2019-05-15T00:36:14.163Z,13.70
2019-05-15T00:41:15.455Z,8.58
2019-05-15T00:46:18.650Z,9.88
2019-05-15T00:51:21.694Z,12.40
2019-05-15T00:56:22.971Z,8.88
2019-05-15T01:01:24.532Z,12.07
2019-05-15T01:06:28.299Z,10.25
2019-05-15T01:11:30.376Z,9.85
2019-05-15T01:16:31.664Z,11.10
2019-05-15T01:21:33.866Z,15.18
2019-05-15T01:26:38.472Z,11.68
2019-05-15T01:31:40.406Z,18.60
2019-05-15T01:36:44.481Z,15.05
2019-05-15T01:41:49.373Z,11.43
2019-05-15T01:46:51.238Z,14.73
2019-05-15T01:51:53.140Z,12.28
2019-05-15T01:56:54.424Z,12.07
2019-05-15T02:01:59.042Z,12.13
2019-05-15T02:07:00.694Z,15.13
2019-05-15T02:12:02.346Z,13.43
2019-05-15T02:17:03.638Z,13.38
2019-05-15T02:22:08.290Z,13.35
2019-05-15T02:27:12.712Z,11.38
2019-05-15T02:32:13.983Z,14.25
2019-05-15T02:37:15.310Z,13.45
2019-05-15T02:42:19.249Z,12.30
2019-05-15T02:47:20.326Z,13.62
2019-05-15T02:52:21.796Z,12.00
2019-05-15T02:57:23.769Z,11.57
2019-05-15T03:02:25.050Z,12.40
2019-05-15T03:07:29.279Z,14.18
2019-05-15T03:12:29.984Z,14.30
2019-05-15T03:17:31.656Z,11.93
2019-05-15T03:22:33.133Z,11.35
2019-05-15T03:27:35.026Z,11.63
2019-05-15T03:32:52.450Z,13.90
2019-05-15T03:37:45.118Z,13.35
2019-05-15T03:42:49.432Z,13.80
2019-05-15T03:47:50.221Z,15.08
2019-05-15T03:52:53.595Z,13.28
2019-05-15T03:57:59.154Z,12.40
2019-05-15T04:03:01.002Z,13.28
2019-05-15T04:08:02.611Z,16.77
2019-05-15T04:13:09.079Z,15.48
2019-05-15T04:18:10.769Z,17.62
2019-05-15T04:23:21.219Z,17.92
2019-05-15T04:28:25.254Z,22.32
2019-05-15T04:33:29.417Z,15.70
2019-05-15T04:38:32.512Z,14.40
2019-05-15T04:43:43.737Z,14.40
2019-05-15T04:48:39.918Z,17.45
2019-05-15T04:53:40.369Z,14.47
2019-05-15T04:58:44.301Z,13.75
2019-05-15T05:03:45.779Z,13.43
2019-05-15T05:08:49.053Z,15.68
2019-05-15T05:13:50.763Z,14.47
2019-05-15T05:18:52.097Z,18.52
2019-05-15T05:23:53.449Z,15.15
2019-05-15T05:29:01.378Z,15.50
2019-05-15T05:34:02.140Z,18.60
2019-05-15T05:39:05.846Z,11.30
2019-05-15T05:44:08.164Z,11.93
2019-05-15T05:49:09.921Z,11.40
2019-05-15T05:54:11.220Z,14.70
2019-05-15T05:59:12.515Z,14.87
2019-05-15T06:04:14.653Z,10.05
2019-05-15T06:09:18.144Z,12.95
2019-05-15T06:14:21.584Z,11.18
2019-05-15T06:19:22.859Z,10.23
2019-05-15T06:24:24.259Z,13.43
2019-05-15T06:29:28.312Z,10.55
2019-05-15T06:34:32.256Z,12.10
2019-05-15T06:39:35.765Z,12.63
2019-05-15T06:44:40.465Z,9.40
2019-05-15T06:49:48.462Z,10.95
2019-05-15T06:54:50.200Z,9.55
2019-05-15T06:59:51.658Z,8.50
2019-05-15T07:04:55.204Z,9.63
2019-05-15T07:09:58.787Z,10.63
2019-05-15T07:15:02.315Z,11.70
2019-05-15T07:20:08.641Z,7.70
2019-05-15T07:25:10.797Z,8.28
2019-05-15T07:30:31.107Z,5.58
2019-05-15T07:35:34.898Z,7.10
2019-05-15T07:45:58.805Z,6.28
2019-05-15T07:50:59.910Z,5.62
2019-05-15T07:56:02.240Z,5.85
2019-05-15T08:01:05.555Z,3.75
2019-05-15T08:06:08.813Z,6.00
2019-05-15T08:11:20.104Z,3.30
2019-05-15T08:16:17.962Z,5.42
2019-05-15T08:21:18.946Z,7.75
2019-05-15T08:26:21.015Z,4.22
2019-05-15T08:31:25.244Z,7.53
2019-05-15T08:36:31.274Z,4.83
2019-05-15T08:41:34.067Z,4.20
2019-05-15T08:46:35.702Z,4.87
2019-05-15T08:51:38.086Z,6.78
2019-05-15T08:56:40.337Z,6.28
2019-05-15T09:01:50.175Z,3.70
2019-05-15T09:06:51.523Z,3.62
2019-05-15T09:11:52.959Z,5.05
2019-05-15T09:16:58.258Z,5.58
2019-05-15T09:22:00.085Z,4.22
2019-05-15T09:27:09.431Z,2.90
2019-05-15T09:32:09.345Z,3.95
2019-05-15T09:37:12.893Z,4.65
2019-05-15T09:42:14.487Z,4.22
2019-05-15T09:47:18.823Z,7.05
2019-05-15T09:52:22.981Z,2.60
2019-05-15T09:57:24.514Z,5.35
2019-05-15T10:02:28.240Z,4.65
2019-05-15T10:07:32.072Z,4.78
2019-05-15T10:12:35.133Z,4.42
2019-05-15T10:17:40.127Z,2.90
2019-05-15T10:22:44.704Z,3.52
2019-05-15T10:27:48.924Z,4.12
2019-05-15T10:32:51.688Z,3.62
2019-05-15T10:37:54.542Z,4.35
2019-05-15T10:42:59.312Z,3.20
2019-05-15T10:48:03.332Z,4.78
2019-05-15T10:53:10.991Z,4.78
2019-05-15T10:58:17.280Z,2.08
2019-05-15T11:03:20.149Z,3.05
2019-05-15T11:08:24.718Z,3.08
2019-05-15T11:13:28.664Z,2.62
2019-05-15T11:18:31.326Z,5.28
2019-05-15T11:23:33.919Z,3.62
2019-05-15T11:28:38.976Z,3.12
2019-05-15T11:33:40.625Z,2.67
2019-05-15T11:38:42.070Z,2.45
2019-05-15T11:43:49.425Z,5.97
2019-05-15T11:48:53.115Z,3.33
2019-05-15T11:53:58.623Z,2.80
2019-05-15T11:59:08.531Z,5.15
2019-05-15T12:04:26.847Z,2.65
2019-05-15T12:09:18.758Z,3.45
2019-05-15T12:14:20.727Z,4.10
2019-05-15T12:19:22.333Z,2.77
2019-05-15T12:24:31.603Z,2.83
2019-05-15T12:29:28.545Z,2.87
2019-05-15T12:34:38.625Z,4.83
2019-05-15T12:39:41.115Z,4.22
2019-05-15T12:59:58.354Z,2.85
2019-05-15T13:05:00.433Z,3.58
2019-05-15T13:10:08.673Z,5.78
2019-05-15T13:15:11.817Z,2.05
2019-05-15T13:20:13.959Z,3.55
2019-05-15T13:25:18.861Z,3.90
2019-05-15T13:30:21.997Z,5.12
2019-05-15T13:35:25.207Z,4.15
2019-05-15T13:40:37.706Z,2.75
2019-05-15T13:45:35.678Z,3.60
2019-05-15T13:50:40.907Z,5.17
2019-05-15T13:55:43.496Z,4.30
2019-05-15T14:00:48.976Z,4.40
2019-05-15T14:05:50.039Z,4.40
2019-05-15T14:10:51.647Z,3.30
2019-05-15T14:15:55.211Z,4.10
2019-05-15T14:21:02.226Z,5.03
2019-05-15T14:26:17.951Z,4.87
2019-05-15T14:31:11.553Z,4.22
2019-05-15T14:36:13.523Z,3.60
2019-05-15T14:41:15.606Z,5.35
2019-05-15T14:46:18.634Z,5.87
2019-05-15T14:51:20.063Z,5.17
2019-05-15T14:56:22.893Z,4.20
2019-05-15T15:01:25.868Z,12.33
2019-05-15T15:06:28.269Z,3.52
2019-05-15T15:11:30.563Z,7.62
2019-05-15T15:16:31.851Z,8.20
2019-05-15T15:21:33.263Z,4.47
2019-05-15T15:26:39.049Z,3.98
2019-05-15T15:31:43.201Z,8.25
2019-05-15T15:36:48.435Z,4.35
2019-05-15T15:47:18.025Z,10.68
2019-05-15T15:52:22.936Z,8.20
2019-05-15T15:57:28.676Z,9.53
2019-05-15T16:02:33.367Z,5.30
2019-05-15T16:07:34.773Z,19.60
2019-05-15T16:12:38.818Z,4.12
2019-05-15T16:17:39.974Z,5.35
2019-05-15T16:28:05.019Z,3.12
2019-05-15T16:33:09.677Z,5.37
2019-05-15T16:38:11.749Z,5.03
2019-05-15T16:43:13.456Z,4.95
2019-05-15T16:48:20.214Z,3.80
2019-05-15T16:53:28.550Z,5.80
2019-05-15T16:58:32.967Z,3.58
2019-05-15T17:03:38.058Z,6.28
2019-05-15T17:08:40.024Z,6.37
2019-05-15T17:13:42.881Z,6.35
2019-05-15T17:18:48.552Z,6.12
2019-05-15T17:23:49.790Z,3.83
2019-05-15T17:28:52.724Z,4.25
2019-05-15T17:33:59.814Z,3.59
2019-05-15T17:39:03.059Z,5.92
2019-05-15T17:44:07.940Z,3.72
2019-05-15T17:49:15.208Z,4.90
2019-05-15T17:54:12.980Z,5.85
2019-05-15T17:59:14.710Z,2.30
2019-05-15T18:04:19.096Z,4.55
2019-05-15T18:09:24.835Z,4.37
2019-05-15T18:14:26.439Z,7.10
2019-05-15T18:19:31.758Z,4.80
2019-05-15T18:24:33.304Z,6.28
2019-05-15T18:29:34.943Z,3.65
2019-05-15T18:34:40.879Z,5.28
2019-05-15T18:39:44.256Z,5.87
2019-05-15T18:44:48.231Z,3.98
2019-05-15T18:50:04.158Z,7.08
2019-05-15T18:54:59.611Z,4.83
2019-05-15T19:00:02.895Z,6.58
2019-05-15T19:05:08.053Z,8.38
2019-05-15T19:10:09.781Z,7.53
2019-05-15T19:15:12.126Z,5.15
2019-05-15T19:20:15.517Z,4.78
2019-05-15T19:25:18.530Z,6.00
2019-05-15T19:30:20.538Z,6.45
2019-05-15T19:35:22.416Z,8.40
2019-05-15T19:40:25.081Z,5.70
2019-05-15T19:45:28.179Z,5.25
2019-05-15T19:50:29.891Z,5.45
2019-05-15T19:55:32.345Z,8.53
2019-05-15T20:00:34.856Z,5.50
2019-05-15T20:05:38.776Z,7.55
2019-05-15T20:10:42.882Z,6.83
2019-05-15T20:15:48.374Z,4.55
2019-05-15T20:20:49.965Z,5.00
2019-05-15T20:25:51.355Z,6.05
2019-05-15T20:30:53.312Z,5.25
2019-05-15T20:35:58.870Z,4.80
2019-05-15T20:41:00.355Z,5.00
2019-05-15T20:46:05.140Z,7.62
2019-05-15T20:51:08.683Z,5.33
2019-05-15T20:56:17.149Z,5.42
2019-05-15T21:01:18.709Z,5.65
2019-05-15T21:06:40.017Z,6.10
2019-05-15T21:11:41.709Z,7.75
2019-05-15T21:16:43.090Z,7.22
2019-05-15T21:27:07.946Z,7.25
2019-05-15T21:32:14.298Z,5.60
2019-05-15T21:37:18.786Z,6.97
2019-05-15T21:42:20.214Z,6.22
2019-05-15T21:47:23.768Z,6.87
2019-05-15T21:52:28.894Z,6.05
2019-05-15T21:57:36.230Z,5.97
2019-05-15T22:02:33.928Z,6.75
2019-05-15T22:07:35.291Z,5.42
2019-05-15T22:12:39.209Z,5.65
2019-05-15T22:17:40.606Z,6.10
2019-05-15T22:22:41.993Z,7.33
2019-05-15T22:27:43.654Z,7.70
2019-05-15T22:32:49.457Z,4.45
2019-05-15T22:37:51.142Z,5.70
2019-05-15T22:42:52.478Z,7.78
2019-05-15T22:47:58.305Z,5.87
2019-05-15T22:53:00.040Z,5.50
2019-05-15T22:58:01.379Z,5.58
2019-05-15T23:03:05.209Z,6.55
2019-05-15T23:08:06.939Z,5.90
2019-05-15T23:13:13.520Z,6.67
2019-05-15T23:18:15.214Z,7.87
2019-05-15T23:23:18.175Z,5.58
2019-05-15T23:28:22.600Z,5.60
2019-05-15T23:33:28.094Z,8.23
2019-05-15T23:38:30.891Z,7.10
2019-05-15T23:43:34.117Z,7.95
2019-05-15T23:48:37.986Z,8.15
2019-05-15T23:53:41.402Z,9.28
2019-05-15T23:58:44.908Z,8.33
